Time;durP1;ratioP1;P1;durP2;ratioP2;P2;SDS_P1;SDS_P2;PMS_P1;PMS_P2;Temp;Humidity;BMP_temperature;BMP_pressure;BME280_temperature;BME280_humidity;BME280_pressure;Samples;Min_cycle;Max_cycle;Signal;HPM_P1;HPM_P2
2022/01/07 00:01:45;;;;;;;9.27;8.10;;;;;;;;;;4819360;29;20054;-81
2022/01/07 00:04:13;;;;;;;8.88;7.30;;;;;;;;;;4820253;29;20057;-81
2022/01/07 00:06:40;;;;;;;8.10;7.22;;;;;;;;;;4819042;29;20045;-80
2022/01/07 00:09:07;;;;;;;8.35;7.30;;;;;;;;;;4819815;29;20043;-81
2022/01/07 00:11:35;;;;;;;7.90;7.10;;;;;;;;;;4791320;29;20045;-81
2022/01/07 00:14:02;;;;;;;8.65;7.68;;;;;;;;;;4824113;29;20121;-81
2022/01/07 00:16:30;;;;;;;10.38;7.88;;;;;;;;;;4821433;29;20047;-81
2022/01/07 00:18:57;;;;;;;8.98;7.47;;;;;;;;;;4818147;29;20106;-81
2022/01/07 00:21:24;;;;;;;8.98;7.30;;;;;;;;;;4823153;29;20049;-81
2022/01/07 00:23:52;;;;;;;7.30;5.38;;;;;;;;;;4822722;29;20046;-81
2022/01/07 00:26:19;;;;;;;11.55;6.05;;;;;;;;;;4820871;29;20229;-81
2022/01/07 00:28:46;;;;;;;12.93;9.05;;;;;;;;;;4820391;29;20142;-81
2022/01/07 00:31:14;;;;;;;8.98;7.60;;;;;;;;;;4819974;29;20046;-81
2022/01/07 00:33:41;;;;;;;12.13;8.98;;;;;;;;;;4822506;29;20050;-82
2022/01/07 00:36:10;;;;;;;10.00;8.15;;;;;;;;;;4810587;29;20046;-82
2022/01/07 00:38:38;;;;;;;11.80;8.93;;;;;;;;;;4821115;29;20121;-82
2022/01/07 00:41:05;;;;;;;11.10;8.48;;;;;;;;;;4803336;29;20414;-81
2022/01/07 00:43:32;;;;;;;13.60;9.25;;;;;;;;;;4806398;29;20562;-81
2022/01/07 00:46:00;;;;;;;10.77;7.82;;;;;;;;;;4825724;29;20447;-82
2022/01/07 00:48:27;;;;;;;9.35;7.63;;;;;;;;;;4819805;29;20446;-82
2022/01/07 00:50:55;;;;;;;11.68;8.50;;;;;;;;;;4815152;29;20069;-82
2022/01/07 00:53:22;;;;;;;10.98;8.23;;;;;;;;;;4822099;29;20756;-82
2022/01/07 00:55:49;;;;;;;11.38;9.70;;;;;;;;;;4820765;29;20054;-82
2022/01/07 00:58:17;;;;;;;13.18;9.85;;;;;;;;;;4818019;29;20518;-82
2022/01/07 01:00:44;;;;;;;13.13;9.20;;;;;;;;;;4820621;29;20427;-82
2022/01/07 01:03:11;;;;;;;10.57;8.80;;;;;;;;;;4817438;29;20046;-82
2022/01/07 01:05:42;;;;;;;11.50;9.20;;;;;;;;;;4817886;29;20460;-82
2022/01/07 01:08:10;;;;;;;11.18;9.13;;;;;;;;;;4822095;29;20053;-82
2022/01/07 01:10:37;;;;;;;12.45;9.88;;;;;;;;;;4817744;29;20072;-82
2022/01/07 01:13:04;;;;;;;12.93;9.68;;;;;;;;;;4820106;29;20061;-82
2022/01/07 01:15:32;;;;;;;11.82;9.10;;;;;;;;;;4823459;29;20057;-82
2022/01/07 01:17:59;;;;;;;10.93;9.02;;;;;;;;;;4824213;29;20056;-81
2022/01/07 01:20:28;;;;;;;10.52;7.95;;;;;;;;;;4812400;29;20086;-81
2022/01/07 01:22:59;;;;;;;12.55;10.10;;;;;;;;;;4836007;24;20414;31
2022/01/07 01:25:28;;;;;;;9.90;8.07;;;;;;;;;;4794462;29;20130;-87
2022/01/07 01:27:59;;;;;;;9.32;7.22;;;;;;;;;;4792194;29;20130;-87
2022/01/07 01:30:36;;;;;;;5.75;3.97;;;;;;;;;;4773510;29;20159;-87
2022/01/07 01:33:03;;;;;;;8.43;4.38;;;;;;;;;;4780102;29;20055;-87
2022/01/07 01:35:31;;;;;;;13.48;9.25;;;;;;;;;;4785183;29;20047;-86
2022/01/07 01:37:58;;;;;;;7.78;5.80;;;;;;;;;;4790594;29;20134;-87
2022/01/07 01:40:26;;;;;;;12.27;8.77;;;;;;;;;;4783387;29;20142;-87
2022/01/07 01:42:53;;;;;;;9.10;5.95;;;;;;;;;;4787868;30;20044;-87
2022/01/07 01:45:21;;;;;;;8.65;6.78;;;;;;;;;;4781044;29;20136;-86
2022/01/07 01:47:49;;;;;;;10.90;8.68;;;;;;;;;;4783956;30;20058;-87
2022/01/07 01:50:17;;;;;;;11.20;8.82;;;;;;;;;;4801812;29;20561;-87
2022/01/07 01:52:53;;;;;;;12.45;9.50;;;;;;;;;;4800129;29;20080;-87
2022/01/07 01:55:21;;;;;;;15.77;10.50;;;;;;;;;;4788613;29;20055;-88
2022/01/07 01:57:50;;;;;;;14.90;10.63;;;;;;;;;;4794764;29;20054;-88
2022/01/07 02:00:18;;;;;;;9.20;8.07;;;;;;;;;;4796502;29;20065;-88
2022/01/07 02:02:45;;;;;;;14.77;9.80;;;;;;;;;;4781121;29;20137;-88
2022/01/07 02:05:13;;;;;;;11.63;9.00;;;;;;;;;;4796121;29;20058;-88
2022/01/07 02:07:41;;;;;;;14.27;9.63;;;;;;;;;;4778305;29;20048;-88
2022/01/07 02:10:10;;;;;;;12.65;9.50;;;;;;;;;;4794876;29;20051;-88
2022/01/07 02:12:38;;;;;;;12.68;8.32;;;;;;;;;;4777449;29;20061;-88
2022/01/07 02:15:06;;;;;;;10.30;9.20;;;;;;;;;;4797083;29;20154;-87
2022/01/07 02:17:33;;;;;;;12.52;9.13;;;;;;;;;;4781899;29;20052;-88
2022/01/07 02:20:01;;;;;;;14.80;9.65;;;;;;;;;;4787272;29;20047;-88
2022/01/07 02:22:33;;;;;;;12.23;8.93;;;;;;;;;;4767229;29;20059;-88
2022/01/07 02:25:01;;;;;;;12.80;9.48;;;;;;;;;;4793663;29;20126;-88
2022/01/07 02:27:29;;;;;;;10.45;7.43;;;;;;;;;;4795452;29;20099;-88
2022/01/07 02:29:58;;;;;;;11.32;8.85;;;;;;;;;;4796248;29;20058;-88
2022/01/07 02:32:25;;;;;;;11.13;8.82;;;;;;;;;;4780096;29;20525;-87
2022/01/07 02:34:52;;;;;;;15.38;10.45;;;;;;;;;;4794200;29;20390;-88
2022/01/07 02:37:20;;;;;;;14.30;9.13;;;;;;;;;;4795547;29;20142;-88
2022/01/07 02:39:49;;;;;;;16.17;9.32;;;;;;;;;;4787220;30;20143;-88
2022/01/07 02:42:16;;;;;;;12.27;9.70;;;;;;;;;;4774884;30;20054;-88
2022/01/07 02:44:44;;;;;;;13.98;10.25;;;;;;;;;;4789386;29;20572;-88
2022/01/07 02:47:11;;;;;;;12.90;9.63;;;;;;;;;;4786770;29;20045;-88
2022/01/07 02:49:38;;;;;;;12.18;8.90;;;;;;;;;;4789871;29;20086;-88
2022/01/07 02:52:07;;;;;;;9.90;7.60;;;;;;;;;;4789817;29;20059;-88
2022/01/07 02:54:34;;;;;;;11.40;8.68;;;;;;;;;;4758554;30;20051;-88
2022/01/07 02:57:01;;;;;;;13.73;9.30;;;;;;;;;;4772740;30;20051;-87
2022/01/07 02:59:29;;;;;;;11.60;7.80;;;;;;;;;;4793992;30;20061;-87
2022/01/07 03:01:56;;;;;;;15.93;10.25;;;;;;;;;;4805263;29;20047;-85
2022/01/07 03:04:26;;;;;;;16.20;8.95;;;;;;;;;;4792172;29;20055;-88
2022/01/07 03:06:55;;;;;;;13.75;8.82;;;;;;;;;;4771771;30;20044;-87
2022/01/07 03:09:22;;;;;;;8.55;7.30;;;;;;;;;;4771800;30;20055;-88
2022/01/07 03:11:49;;;;;;;12.45;9.35;;;;;;;;;;4786860;29;20464;-87
2022/01/07 03:14:17;;;;;;;16.73;9.45;;;;;;;;;;4785847;29;20074;-87
2022/01/07 03:16:44;;;;;;;10.18;7.57;;;;;;;;;;4786270;29;20051;-88
2022/01/07 03:19:12;;;;;;;12.95;8.57;;;;;;;;;;4770877;30;20070;-88
2022/01/07 03:21:46;;;;;;;10.35;7.45;;;;;;;;;;4770987;29;20666;-88
2022/01/07 03:24:26;;;;;;;13.55;9.15;;;;;;;;;;4787237;29;20058;-87
2022/01/07 03:26:53;;;;;;;13.85;9.52;;;;;;;;;;4795490;29;20053;-87
2022/01/07 03:29:21;;;;;;;11.00;8.07;;;;;;;;;;4785947;29;20130;-87
2022/01/07 03:31:48;;;;;;;11.45;8.23;;;;;;;;;;4800327;29;20066;-87
2022/01/07 03:34:15;;;;;;;8.50;6.57;;;;;;;;;;4786539;30;20050;-86
2022/01/07 03:36:43;;;;;;;10.35;7.22;;;;;;;;;;4785180;29;20043;-87
2022/01/07 03:39:10;;;;;;;10.43;7.65;;;;;;;;;;4756288;30;20054;-87
2022/01/07 03:41:38;;;;;;;8.77;7.22;;;;;;;;;;4790344;29;20542;-86
2022/01/07 03:44:05;;;;;;;11.35;8.15;;;;;;;;;;4785652;30;20050;-88
2022/01/07 03:46:33;;;;;;;9.15;7.05;;;;;;;;;;4785304;29;20514;-88
2022/01/07 03:49:00;;;;;;;11.25;7.85;;;;;;;;;;4787533;29;20058;-88
2022/01/07 03:51:27;;;;;;;10.88;7.65;;;;;;;;;;4793240;29;20058;-86
2022/01/07 03:53:54;;;;;;;9.02;7.63;;;;;;;;;;4795436;29;20522;-87
2022/01/07 03:56:22;;;;;;;13.13;7.57;;;;;;;;;;4774088;29;20055;-88
2022/01/07 03:58:49;;;;;;;11.90;8.63;;;;;;;;;;4818773;29;20046;-87
2022/01/07 04:01:17;;;;;;;11.00;8.35;;;;;;;;;;4787815;29;20039;-88
2022/01/07 04:03:44;;;;;;;11.10;7.88;;;;;;;;;;4770556;30;20068;-88
2022/01/07 04:06:15;;;;;;;12.77;8.85;;;;;;;;;;4758678;30;20090;-88
2022/01/07 04:08:42;;;;;;;10.90;7.90;;;;;;;;;;4770700;30;20579;-88
2022/01/07 04:11:09;;;;;;;11.75;7.65;;;;;;;;;;4792797;29;20117;-88
2022/01/07 04:13:37;;;;;;;8.98;7.53;;;;;;;;;;4785491;29;20059;-88
2022/01/07 04:16:04;;;;;;;13.05;8.40;;;;;;;;;;4770365;30;20138;-88
2022/01/07 04:18:32;;;;;;;12.57;7.53;;;;;;;;;;4785557;30;20739;-88
2022/01/07 04:20:59;;;;;;;10.27;7.47;;;;;;;;;;4785204;29;20135;-87
2022/01/07 04:23:27;;;;;;;11.23;7.78;;;;;;;;;;4771086;30;20077;-88
2022/01/07 04:25:57;;;;;;;11.63;8.40;;;;;;;;;;4775257;30;20046;-88
2022/01/07 04:28:25;;;;;;;11.45;7.65;;;;;;;;;;4791160;29;20427;-87
2022/01/07 04:30:52;;;;;;;10.85;8.23;;;;;;;;;;4770175;30;20126;-88
2022/01/07 04:33:26;;;;;;;11.70;8.27;;;;;;;;;;4770752;30;20056;-88
2022/01/07 04:35:55;;;;;;;9.65;8.00;;;;;;;;;;4772944;30;20565;-88
2022/01/07 04:38:23;;;;;;;12.60;8.52;;;;;;;;;;4786479;30;20043;-89
2022/01/07 04:40:50;;;;;;;13.07;8.77;;;;;;;;;;4799118;29;20418;-88
2022/01/07 04:43:17;;;;;;;13.35;8.50;;;;;;;;;;4786611;29;20048;-87
2022/01/07 04:45:45;;;;;;;11.38;8.85;;;;;;;;;;4770672;30;20051;-88
2022/01/07 04:48:16;;;;;;;12.82;8.77;;;;;;;;;;4770594;30;20510;-88
2022/01/07 04:50:44;;;;;;;9.70;8.07;;;;;;;;;;4768639;30;20471;-86
2022/01/07 04:53:11;;;;;;;8.82;7.28;;;;;;;;;;4768496;30;20051;-87
2022/01/07 04:55:40;;;;;;;9.77;7.00;;;;;;;;;;4771543;29;20047;-88
2022/01/07 04:58:09;;;;;;;12.90;8.20;;;;;;;;;;4786156;29;20055;-87
2022/01/07 05:00:40;;;;;;;13.68;9.73;;;;;;;;;;4767298;30;20055;-87
2022/01/07 05:03:07;;;;;;;9.30;7.55;;;;;;;;;;4769120;30;20056;-87
2022/01/07 05:05:35;;;;;;;6.93;5.93;;;;;;;;;;4771855;29;20458;-86
2022/01/07 05:08:03;;;;;;;12.85;9.15;;;;;;;;;;4785351;30;20040;-86
2022/01/07 05:10:30;;;;;;;14.30;8.55;;;;;;;;;;4784701;29;20044;-88
2022/01/07 05:12:58;;;;;;;10.65;7.32;;;;;;;;;;4770076;30;20087;-87
2022/01/07 05:15:25;;;;;;;13.88;8.70;;;;;;;;;;4784714;29;20043;-87
2022/01/07 05:17:53;;;;;;;8.25;5.13;;;;;;;;;;4785103;30;20040;-88
2022/01/07 05:20:21;;;;;;;9.25;6.85;;;;;;;;;;4770775;29;20079;-86
2022/01/07 05:22:49;;;;;;;7.13;5.40;;;;;;;;;;4787776;30;20039;-87
2022/01/07 05:25:17;;;;;;;9.55;7.68;;;;;;;;;;4788014;29;20506;-87
2022/01/07 05:27:44;;;;;;;10.10;7.55;;;;;;;;;;4772228;30;20124;-87
2022/01/07 05:30:12;;;;;;;11.50;8.15;;;;;;;;;;4756484;29;20059;-87
2022/01/07 05:32:40;;;;;;;10.15;7.85;;;;;;;;;;4771910;30;20134;-87
2022/01/07 05:35:08;;;;;;;11.27;7.75;;;;;;;;;;4771881;30;20456;-87
2022/01/07 05:37:35;;;;;;;9.73;6.25;;;;;;;;;;4786272;29;20066;-87
2022/01/07 05:40:04;;;;;;;14.38;9.30;;;;;;;;;;4786611;29;20502;-86
2022/01/07 05:42:31;;;;;;;12.82;8.60;;;;;;;;;;4774282;29;20046;-87
2022/01/07 05:44:58;;;;;;;10.55;8.70;;;;;;;;;;4804908;29;20053;-88
2022/01/07 05:47:26;;;;;;;16.83;11.95;;;;;;;;;;4804692;29;20057;-87
2022/01/07 05:49:53;;;;;;;16.15;11.48;;;;;;;;;;4791686;29;20071;-87
2022/01/07 05:52:20;;;;;;;14.48;9.98;;;;;;;;;;4772759;29;20062;-87
2022/01/07 05:54:48;;;;;;;15.63;11.80;;;;;;;;;;4789696;29;20055;-86
2022/01/07 05:57:16;;;;;;;12.65;9.10;;;;;;;;;;4788378;29;20134;-87
2022/01/07 05:59:43;;;;;;;18.20;11.38;;;;;;;;;;4788298;30;20481;-87
2022/01/07 06:02:10;;;;;;;18.27;11.40;;;;;;;;;;4784118;29;20051;-88
2022/01/07 06:04:38;;;;;;;16.70;11.45;;;;;;;;;;4772726;30;20055;-87
2022/01/07 06:07:05;;;;;;;13.90;10.50;;;;;;;;;;4772375;30;20063;-87
2022/01/07 06:09:34;;;;;;;16.20;11.00;;;;;;;;;;4772577;30;20070;-87
2022/01/07 06:12:02;;;;;;;19.40;13.32;;;;;;;;;;4768642;30;20109;-87
2022/01/07 06:14:29;;;;;;;16.08;11.65;;;;;;;;;;4784407;30;20052;-87
2022/01/07 06:16:56;;;;;;;18.42;12.55;;;;;;;;;;4771865;29;20718;-87
2022/01/07 06:19:24;;;;;;;14.57;10.93;;;;;;;;;;4784584;29;20456;-87
2022/01/07 06:21:51;;;;;;;17.42;12.20;;;;;;;;;;4788832;29;20514;-87
2022/01/07 06:24:18;;;;;;;20.67;12.32;;;;;;;;;;4787979;29;20111;-86
2022/01/07 06:26:46;;;;;;;17.83;10.82;;;;;;;;;;4778605;30;20108;-88
2022/01/07 06:29:13;;;;;;;13.90;9.98;;;;;;;;;;4786705;29;20047;-88
2022/01/07 06:31:40;;;;;;;20.65;12.50;;;;;;;;;;4785716;29;20054;-87
2022/01/07 06:34:08;;;;;;;14.70;11.00;;;;;;;;;;4771748;30;20048;-87
2022/01/07 06:36:35;;;;;;;15.57;11.10;;;;;;;;;;4797932;29;20133;-87
2022/01/07 06:39:03;;;;;;;16.05;10.63;;;;;;;;;;4805390;29;20039;-87
2022/01/07 06:41:31;;;;;;;16.65;10.45;;;;;;;;;;4789913;29;20429;-87
2022/01/07 06:43:58;;;;;;;22.02;12.75;;;;;;;;;;4779433;29;20078;-88
2022/01/07 06:46:26;;;;;;;13.82;9.52;;;;;;;;;;4778957;29;20052;-87
2022/01/07 06:48:53;;;;;;;15.40;10.40;;;;;;;;;;4786659;29;20049;-87
2022/01/07 06:51:20;;;;;;;14.52;9.43;;;;;;;;;;4786407;29;20055;-87
2022/01/07 06:53:48;;;;;;;16.33;10.88;;;;;;;;;;4787244;30;20112;-87
2022/01/07 06:56:15;;;;;;;12.48;9.40;;;;;;;;;;4771331;30;20417;-87
2022/01/07 06:58:42;;;;;;;12.02;8.15;;;;;;;;;;4786935;29;22006;-87
2022/01/07 07:01:10;;;;;;;13.70;10.02;;;;;;;;;;4793500;29;20051;-87
2022/01/07 07:03:40;;;;;;;13.07;9.02;;;;;;;;;;4790251;29;20051;-87
2022/01/07 07:06:08;;;;;;;10.65;9.05;;;;;;;;;;4786807;29;20049;-87
2022/01/07 07:08:38;;;;;;;12.27;9.68;;;;;;;;;;4792396;29;20081;-87
2022/01/07 07:11:06;;;;;;;15.85;10.35;;;;;;;;;;4789277;29;20118;-87
2022/01/07 07:13:33;;;;;;;13.57;10.00;;;;;;;;;;4786950;30;20039;-87
2022/01/07 07:16:01;;;;;;;12.52;8.85;;;;;;;;;;4761964;30;20062;-87
2022/01/07 07:18:28;;;;;;;13.88;10.00;;;;;;;;;;4788733;29;20130;-87
2022/01/07 07:20:56;;;;;;;13.23;9.93;;;;;;;;;;4788174;29;20122;-87
2022/01/07 07:23:23;;;;;;;14.13;10.80;;;;;;;;;;4772810;30;20051;-87
2022/01/07 07:25:51;;;;;;;16.10;9.95;;;;;;;;;;4786185;29;20253;-86
2022/01/07 07:28:19;;;;;;;16.60;11.65;;;;;;;;;;4787631;29;20051;-87
2022/01/07 07:30:47;;;;;;;15.07;11.10;;;;;;;;;;4772227;30;20530;-87
2022/01/07 07:38:48;;;;;;;17.92;11.85;;;;;;;;;;4769353;29;20073;-89
2022/01/07 07:41:27;;;;;;;15.73;10.43;;;;;;;;;;4783598;29;20059;-87
2022/01/07 07:43:59;;;;;;;13.23;9.90;;;;;;;;;;4791886;29;20084;-88
2022/01/07 07:46:30;;;;;;;14.02;10.43;;;;;;;;;;4804485;29;20534;-87
2022/01/07 07:49:00;;;;;;;15.85;10.48;;;;;;;;;;4804496;29;20540;-87
2022/01/07 07:51:28;;;;;;;16.83;11.35;;;;;;;;;;4803389;29;20078;-87
2022/01/07 07:53:56;;;;;;;15.45;10.55;;;;;;;;;;4802611;29;20386;-87
2022/01/07 07:56:24;;;;;;;13.88;9.82;;;;;;;;;;4809630;29;20037;-88
2022/01/07 07:58:51;;;;;;;12.88;7.75;;;;;;;;;;4791290;29;20059;-87
2022/01/07 08:01:18;;;;;;;13.52;10.02;;;;;;;;;;4790023;29;20492;-87
2022/01/07 08:03:46;;;;;;;13.80;10.85;;;;;;;;;;4788448;29;20077;-85
2022/01/07 08:06:13;;;;;;;15.32;10.82;;;;;;;;;;4788403;29;20077;-87
2022/01/07 08:08:41;;;;;;;13.10;10.27;;;;;;;;;;4775596;29;20054;-87
2022/01/07 08:11:11;;;;;;;17.23;11.88;;;;;;;;;;4787589;29;20620;-88
2022/01/07 08:16:29;;;;;;;15.00;10.80;;;;;;;;;;4786410;29;20103;-86
2022/01/07 08:18:57;;;;;;;13.60;9.88;;;;;;;;;;4784512;30;20150;-87
2022/01/07 08:21:29;;;;;;;15.48;10.02;;;;;;;;;;4794105;29;20053;-87
2022/01/07 08:23:57;;;;;;;12.10;9.50;;;;;;;;;;4798086;29;20074;-87
2022/01/07 08:26:24;;;;;;;13.15;9.75;;;;;;;;;;4792887;29;20050;-88
2022/01/07 08:28:56;;;;;;;15.63;8.80;;;;;;;;;;4786121;29;20258;-86
2022/01/07 08:36:46;;;;;;;16.35;10.18;;;;;;;;;;4785369;29;20445;-86
2022/01/07 08:39:14;;;;;;;14.35;9.25;;;;;;;;;;4786137;30;20058;-87
2022/01/07 08:41:42;;;;;;;14.52;9.43;;;;;;;;;;4785568;29;20051;-87
2022/01/07 08:44:10;;;;;;;13.25;8.85;;;;;;;;;;4785047;30;20051;-86
2022/01/07 08:46:38;;;;;;;12.80;9.38;;;;;;;;;;4793043;29;20124;-86
2022/01/07 08:49:06;;;;;;;14.20;9.85;;;;;;;;;;4786689;29;20049;-86
2022/01/07 08:51:33;;;;;;;12.63;9.32;;;;;;;;;;4791815;29;20069;-86
2022/01/07 08:54:01;;;;;;;15.88;10.30;;;;;;;;;;4784901;29;20043;-87
2022/01/07 08:56:28;;;;;;;16.08;10.32;;;;;;;;;;4771926;29;20063;-86
2022/01/07 08:58:56;;;;;;;17.13;10.68;;;;;;;;;;4803469;29;20039;-87
2022/01/07 09:01:27;;;;;;;15.00;10.40;;;;;;;;;;4803269;29;20151;-87
2022/01/07 09:03:55;;;;;;;13.18;10.05;;;;;;;;;;4789525;30;20071;-86
2022/01/07 09:06:22;;;;;;;14.23;10.32;;;;;;;;;;4813337;29;20099;-86
2022/01/07 09:08:49;;;;;;;16.08;10.48;;;;;;;;;;4811024;30;20118;-86
2022/01/07 09:11:17;;;;;;;13.02;10.52;;;;;;;;;;4795521;29;20054;-86
2022/01/07 09:13:45;;;;;;;17.05;10.18;;;;;;;;;;4811811;29;20146;-86
2022/01/07 09:16:13;;;;;;;12.70;8.82;;;;;;;;;;4812400;29;20067;-86
2022/01/07 09:18:40;;;;;;;15.20;9.73;;;;;;;;;;4812977;29;20044;-86
2022/01/07 09:21:10;;;;;;;16.33;11.77;;;;;;;;;;4810174;29;20055;-86
2022/01/07 09:23:41;;;;;;;12.90;10.73;;;;;;;;;;4819030;29;20042;-86
2022/01/07 09:26:09;;;;;;;17.40;11.38;;;;;;;;;;4823351;29;20054;-86
2022/01/07 09:28:37;;;;;;;14.60;10.57;;;;;;;;;;4822397;29;20047;-86
2022/01/07 09:31:05;;;;;;;15.15;10.63;;;;;;;;;;4803743;29;20038;-86
2022/01/07 09:33:32;;;;;;;14.20;9.82;;;;;;;;;;4825816;24;20125;-71
2022/01/07 09:36:17;;;;;;;13.02;9.85;;;;;;;;;;4823681;29;20051;-84
2022/01/07 09:38:44;;;;;;;14.27;10.95;;;;;;;;;;4778535;29;20048;-84
2022/01/07 09:41:11;;;;;;;16.63;12.75;;;;;;;;;;4817861;29;20058;-83
2022/01/07 09:43:42;;;;;;;22.00;13.63;;;;;;;;;;4816926;29;20148;-83
2022/01/07 09:46:12;;;;;;;17.60;12.25;;;;;;;;;;4793143;29;20046;-84
2022/01/07 09:48:40;;;;;;;17.30;11.68;;;;;;;;;;4827310;29;20462;-83
2022/01/07 09:51:08;;;;;;;19.33;11.95;;;;;;;;;;4805188;29;20445;-83
2022/01/07 09:53:37;;;;;;;15.25;10.68;;;;;;;;;;4794066;29;20139;-87
2022/01/07 09:56:06;;;;;;;16.05;11.00;;;;;;;;;;4796398;29;20138;-86
2022/01/07 09:58:34;;;;;;;16.48;9.52;;;;;;;;;;4796628;29;20056;-86
2022/01/07 10:01:03;;;;;;;14.13;10.55;;;;;;;;;;4814984;29;20047;-86
2022/01/07 10:03:41;;;;;;;9.40;8.05;;;;;;;;;;4823589;29;20044;-86
2022/01/07 10:06:19;;;;;;;6.82;5.20;;;;;;;;;;4830917;29;20047;-84
2022/01/07 10:09:00;;;;;;;16.00;10.02;;;;;;;;;;4809696;29;20491;-84
2022/01/07 10:11:27;;;;;;;15.85;10.15;;;;;;;;;;4812082;29;20051;-83
2022/01/07 10:14:13;;;;;;;13.55;9.75;;;;;;;;;;4794449;29;20075;-84
2022/01/07 10:16:48;;;;;;;14.57;10.18;;;;;;;;;;4797575;29;20062;-83
2022/01/07 10:19:35;;;;;;;14.73;10.75;;;;;;;;;;4796320;29;20054;-84
2022/01/07 10:22:05;;;;;;;11.60;9.02;;;;;;;;;;4794486;29;20048;-84
2022/01/07 10:24:52;;;;;;;14.27;11.25;;;;;;;;;;4836118;29;20523;-84
2022/01/07 10:27:19;;;;;;;12.10;8.43;;;;;;;;;;4814200;29;20115;-83
2022/01/07 10:29:47;;;;;;;20.63;12.98;;;;;;;;;;4794989;29;20055;-83
2022/01/07 10:32:21;;;;;;;17.17;11.55;;;;;;;;;;4841435;29;20055;-83
2022/01/07 10:35:07;;;;;;;19.73;12.38;;;;;;;;;;4840833;29;20053;-86
2022/01/07 10:37:35;;;;;;;17.65;12.15;;;;;;;;;;4833033;29;20051;-83
2022/01/07 10:40:19;;;;;;;15.55;12.02;;;;;;;;;;4804610;29;20047;-83
2022/01/07 10:42:46;;;;;;;19.33;12.95;;;;;;;;;;4791529;29;20066;-84
2022/01/07 10:45:14;;;;;;;18.75;13.30;;;;;;;;;;4792381;29;20061;-83
2022/01/07 10:47:41;;;;;;;17.38;12.13;;;;;;;;;;4789738;30;20104;-83
2022/01/07 10:50:23;;;;;;;20.05;13.98;;;;;;;;;;4789671;29;20538;-86
2022/01/07 10:52:51;;;;;;;18.70;13.43;;;;;;;;;;4803398;29;20059;-84
2022/01/07 10:55:20;;;;;;;21.67;13.50;;;;;;;;;;4795470;29;20522;-84
2022/01/07 10:57:50;;;;;;;16.05;12.23;;;;;;;;;;4816305;29;20043;-84
2022/01/07 11:00:19;;;;;;;19.58;12.63;;;;;;;;;;4824817;29;20055;-84
2022/01/07 11:02:47;;;;;;;16.38;11.00;;;;;;;;;;4827081;29;20047;-84
2022/01/07 11:05:15;;;;;;;18.50;11.90;;;;;;;;;;4779195;29;20500;-84
2022/01/07 11:07:43;;;;;;;20.70;12.25;;;;;;;;;;4791361;29;20052;-84
2022/01/07 11:10:11;;;;;;;14.02;8.98;;;;;;;;;;4773473;29;20076;-85
2022/01/07 11:12:38;;;;;;;24.50;13.90;;;;;;;;;;4747759;29;20515;-84
2022/01/07 11:15:08;;;;;;;20.33;13.27;;;;;;;;;;4763557;29;20063;-84
2022/01/07 11:17:37;;;;;;;23.02;13.65;;;;;;;;;;4793979;29;20100;-84
2022/01/07 11:20:05;;;;;;;21.85;13.77;;;;;;;;;;4797459;29;20051;-84
2022/01/07 11:22:38;;;;;;;20.23;13.38;;;;;;;;;;4777817;29;20515;-84
2022/01/07 11:25:07;;;;;;;15.40;9.50;;;;;;;;;;4806010;29;20051;-84
2022/01/07 11:28:00;;;;;;;26.33;14.73;;;;;;;;;;4784921;29;20054;-84
2022/01/07 11:30:32;;;;;;;24.25;14.15;;;;;;;;;;4793064;29;20055;-85
2022/01/07 11:33:00;;;;;;;18.85;12.60;;;;;;;;;;4787295;29;20051;-84
2022/01/07 11:35:28;;;;;;;20.65;12.25;;;;;;;;;;4794007;29;20115;-84
2022/01/07 11:37:56;;;;;;;18.30;11.52;;;;;;;;;;4786595;29;20079;-84
2022/01/07 11:40:46;;;;;;;18.75;12.25;;;;;;;;;;4797685;29;20055;-84
2022/01/07 11:43:14;;;;;;;15.20;11.10;;;;;;;;;;4786413;29;20520;-84
2022/01/07 11:45:42;;;;;;;17.45;11.18;;;;;;;;;;4786417;29;20039;-84
2022/01/07 11:48:09;;;;;;;15.43;9.10;;;;;;;;;;4798234;29;20059;-84
2022/01/07 11:50:46;;;;;;;18.33;10.80;;;;;;;;;;4819401;29;20069;-85
2022/01/07 11:53:13;;;;;;;12.88;7.70;;;;;;;;;;4815752;29;20074;-85
2022/01/07 11:55:42;;;;;;;15.55;9.85;;;;;;;;;;4803453;29;20051;-85
2022/01/07 11:58:13;;;;;;;15.85;11.20;;;;;;;;;;4791322;29;20066;-85
2022/01/07 12:00:53;;;;;;;12.20;8.48;;;;;;;;;;4788928;29;20048;-84
2022/01/07 12:03:34;;;;;;;15.35;9.50;;;;;;;;;;4786936;29;20133;-85
2022/01/07 12:06:28;;;;;;;17.37;10.60;;;;;;;;;;4793877;29;20039;-86
2022/01/07 12:08:59;;;;;;;17.77;10.75;;;;;;;;;;4780696;29;20051;-85
2022/01/07 12:11:28;;;;;;;9.70;6.97;;;;;;;;;;4793924;29;20058;-85
2022/01/07 12:13:56;;;;;;;12.75;8.38;;;;;;;;;;4798522;29;20490;-84
2022/01/07 12:16:24;;;;;;;6.85;4.65;;;;;;;;;;4808399;29;20484;-84
2022/01/07 12:18:53;;;;;;;11.52;7.43;;;;;;;;;;4794963;29;20051;-85
2022/01/07 12:21:20;;;;;;;8.88;7.25;;;;;;;;;;4824525;29;20047;-85
2022/01/07 12:23:47;;;;;;;12.15;7.10;;;;;;;;;;4793049;29;20107;-84
2022/01/07 12:26:15;;;;;;;9.40;7.15;;;;;;;;;;4790802;29;20058;-86
2022/01/07 12:28:45;;;;;;;11.75;7.55;;;;;;;;;;4786050;29;20051;-85
2022/01/07 12:31:12;;;;;;;13.05;7.82;;;;;;;;;;4801997;29;20062;-85
2022/01/07 12:34:09;;;;;;;9.50;6.75;;;;;;;;;;4819253;29;20501;-84
2022/01/07 12:36:37;;;;;;;12.35;7.22;;;;;;;;;;4791299;29;20597;-85
2022/01/07 12:39:07;;;;;;;9.30;6.22;;;;;;;;;;4770403;29;20451;-85
2022/01/07 12:41:35;;;;;;;8.63;7.18;;;;;;;;;;4809098;29;20057;-84
2022/01/07 12:44:15;;;;;;;11.10;7.43;;;;;;;;;;4797094;29;20072;-84
2022/01/07 12:46:50;;;;;;;6.32;5.10;;;;;;;;;;4798891;29;20110;-84
2022/01/07 12:49:32;;;;;;;7.65;5.53;;;;;;;;;;4788413;29;20089;-84
2022/01/07 12:52:16;;;;;;;8.80;7.40;;;;;;;;;;4795305;29;20071;-86
2022/01/07 12:55:02;;;;;;;12.05;8.20;;;;;;;;;;4798806;29;20451;-86
2022/01/07 12:57:32;;;;;;;9.48;6.30;;;;;;;;;;4774580;29;20171;-86
2022/01/07 13:00:10;;;;;;;9.75;6.60;;;;;;;;;;4774774;29;20051;-85
2022/01/07 13:02:38;;;;;;;8.63;6.30;;;;;;;;;;4768686;29;20067;-84
2022/01/07 13:05:29;;;;;;;10.82;7.60;;;;;;;;;;4789389;29;20055;-85
2022/01/07 13:08:00;;;;;;;10.10;7.63;;;;;;;;;;4752522;30;20056;-85
2022/01/07 13:10:32;;;;;;;11.33;7.17;;;;;;;;;;4729551;30;20048;-85
2022/01/07 13:13:06;;;;;;;8.13;6.78;;;;;;;;;;4733109;30;20854;-85
2022/01/07 13:15:40;;;;;;;10.07;7.07;;;;;;;;;;4763690;30;20728;-85
2022/01/07 13:18:14;;;;;;;9.70;7.10;;;;;;;;;;4763307;30;20109;-85
2022/01/07 13:20:41;;;;;;;8.40;6.65;;;;;;;;;;4750913;30;20052;-85
2022/01/07 13:23:09;;;;;;;13.63;7.93;;;;;;;;;;4752842;30;20052;-85
2022/01/07 13:25:38;;;;;;;11.30;8.05;;;;;;;;;;4796496;24;20113;-90
2022/01/07 13:28:06;;;;;;;9.30;7.72;;;;;;;;;;4857948;29;20099;-91
2022/01/07 13:30:45;;;;;;;9.77;7.35;;;;;;;;;;4824054;29;20060;-90
2022/01/07 13:33:15;;;;;;;14.35;7.80;;;;;;;;;;4852745;29;20118;-89
2022/01/07 13:36:07;;;;;;;12.50;7.88;;;;;;;;;;4806413;29;20418;-89
2022/01/07 13:38:35;;;;;;;15.95;8.38;;;;;;;;;;4835341;29;20099;-90
2022/01/07 13:41:07;;;;;;;11.27;8.27;;;;;;;;;;4805823;29;20046;-90
2022/01/07 13:43:35;;;;;;;;;;;;;;;;;;4819253;29;20055;-90
2022/01/07 13:46:16;;;;;;;9.10;6.55;;;;;;;;;;4821724;29;19925;-90
2022/01/07 13:48:51;;;;;;;12.15;7.25;;;;;;;;;;4823194;29;20066;-90
2022/01/07 13:51:22;;;;;;;10.15;8.07;;;;;;;;;;4809588;29;20070;-90
2022/01/07 13:54:08;;;;;;;9.90;7.93;;;;;;;;;;4808222;29;20066;-90
2022/01/07 13:56:37;;;;;;;11.63;7.75;;;;;;;;;;4807196;29;20050;-90
2022/01/07 13:59:07;;;;;;;7.70;6.47;;;;;;;;;;4823446;29;20440;-89
2022/01/07 14:01:36;;;;;;;9.48;7.28;;;;;;;;;;4829099;29;20502;-89
2022/01/07 14:04:07;;;;;;;9.32;6.75;;;;;;;;;;4820946;29;20050;-90
2022/01/07 14:06:41;;;;;;;9.30;7.05;;;;;;;;;;4810627;29;20394;-89
2022/01/07 14:09:17;;;;;;;11.98;7.10;;;;;;;;;;4841295;29;20058;-89
2022/01/07 14:12:03;;;;;;;9.55;6.53;;;;;;;;;;4839149;29;20050;-90
2022/01/07 14:14:39;;;;;;;11.13;7.43;;;;;;;;;;4860202;29;20054;-89
2022/01/07 14:17:11;;;;;;;9.57;6.70;;;;;;;;;;4841485;29;20063;-89
2022/01/07 14:20:05;;;;;;;12.25;8.52;;;;;;;;;;4840199;29;20211;-89
2022/01/07 14:22:42;;;;;;;22.00;14.27;;;;;;;;;;4826128;29;20122;-90
2022/01/07 14:25:10;;;;;;;13.38;9.38;;;;;;;;;;4827826;29;20057;-89
2022/01/07 14:27:38;;;;;;;12.27;8.65;;;;;;;;;;4862108;29;20026;-89
2022/01/07 14:30:14;;;;;;;10.65;7.47;;;;;;;;;;4860910;29;20047;-89
2022/01/07 14:32:42;;;;;;;9.57;7.00;;;;;;;;;;4845858;29;20026;-89
2022/01/07 14:35:10;;;;;;;10.98;7.80;;;;;;;;;;4844034;29;20038;-89
2022/01/07 14:37:38;;;;;;;11.15;8.10;;;;;;;;;;4856492;29;20041;-89
2022/01/07 14:40:06;;;;;;;8.50;7.38;;;;;;;;;;4837640;29;20065;-89
2022/01/07 14:42:33;;;;;;;10.43;7.07;;;;;;;;;;4846342;29;20505;-89
2022/01/07 14:45:02;;;;;;;9.70;7.15;;;;;;;;;;4823230;29;20054;-89
2022/01/07 14:47:30;;;;;;;12.40;7.10;;;;;;;;;;4822846;29;20047;-89
2022/01/07 14:49:58;;;;;;;8.60;6.82;;;;;;;;;;4793881;29;20084;-90
2022/01/07 14:52:46;;;;;;;11.43;7.65;;;;;;;;;;4831336;29;20049;-90
2022/01/07 14:55:14;;;;;;;10.15;7.13;;;;;;;;;;4836988;29;20042;-90
2022/01/07 14:57:42;;;;;;;8.15;7.10;;;;;;;;;;4837113;29;20422;-89